This is the latest recevied weather packets stored in our database for station/object OK1PHM-12. If no packets are shown the sender has not sent any weather packets the latest 10 day(s).
| Time | Temp. | Humidity | Pressure | Rain* | Wind** | Luminosity | Snow |
|---|---|---|---|---|---|---|---|
| 1777878599 | 18.89° C | 49% | 1016.1 hPa | - | - | - | - |
| 1777877698 | 18.89° C | 47% | 1016 hPa | - | - | - | - |
| 1777876797 | 17.78° C | 53% | 1015.8 hPa | - | - | - | - |
| 1777875896 | 17.22° C | 53% | 1016 hPa | - | - | - | - |
| 1777874995 | 17.78° C | 52% | 1016 hPa | - | - | - | - |
| 1777874094 | 17.78° C | 53% | 1016 hPa | - | - | - | - |
| 1777873193 | 17.22° C | 53% | 1016.1 hPa | - | - | - | - |
| 1777872292 | 15° C | 62% | 1016.2 hPa | - | - | - | - |
| 1777871392 | 13.33° C | 66% | 1016 hPa | - | - | - | - |
| 1777870491 | 13.33° C | 64% | 1015.9 hPa | - | - | - | - |
| 1777869590 | 13.89° C | 62% | 1016 hPa | - | - | - | - |
| 1777868689 | 12.78° C | 67% | 1015.9 hPa | - | - | - | - |
| 1777867789 | 11.67° C | 68% | 1015.8 hPa | - | - | - | - |
| 1777866888 | 11.11° C | 70% | 1015.9 hPa | - | - | - | - |
| 1777865987 | 11.11° C | 68% | 1015.8 hPa | - | - | - | - |
| 1777865086 | 11.11° C | 68% | 1015.7 hPa | - | - | - | - |
| 1777864185 | 11.67° C | 66% | 1015.6 hPa | - | - | - | - |
| 1777863284 | 11.67° C | 63% | 1015.5 hPa | - | - | - | - |
| 1777862383 | 12.78° C | 61% | 1015.4 hPa | - | - | - | - |
| 1777861483 | 13.33° C | 58% | 1015.2 hPa | - | - | - | - |
| 1777860582 | 13.33° C | 58% | 1015.2 hPa | - | - | - | - |
| 1777859681 | 13.89° C | 55% | 1015.2 hPa | - | - | - | - |
| 1777858780 | 14.44° C | 54% | 1015 hPa | - | - | - | - |
| 1777857879 | 15.56° C | 50% | 1014.8 hPa | - | - | - | - |
| 1777856979 | 17.22° C | 45% | 1014.7 hPa | - | - | - | - |
* Rain since midnight (hover to see other rain measurements)
** Current wind speed in m/s (hover to see current wind gust speed)